sensor_id;sensor_type;location;lat;lon;timestamp;temperature;humidity
698;DHT22;331;48.414;9.938;2023-04-01T00:01:05;8.70;99.90
698;DHT22;331;48.414;9.938;2023-04-01T00:03:34;8.70;99.90
698;DHT22;331;48.414;9.938;2023-04-01T00:06:01;8.70;99.90
698;DHT22;331;48.414;9.938;2023-04-01T00:08:28;8.70;99.90
698;DHT22;331;48.414;9.938;2023-04-01T00:10:55;8.70;99.90
698;DHT22;331;48.414;9.938;2023-04-01T00:13:23;8.70;99.90
698;DHT22;331;48.414;9.938;2023-04-01T00:15:51;8.70;99.90
698;DHT22;331;48.414;9.938;2023-04-01T00:18:18;8.70;99.90
698;DHT22;331;48.414;9.938;2023-04-01T00:20:49;8.70;99.90
698;DHT22;331;48.414;9.938;2023-04-01T00:23:17;8.70;99.90
698;DHT22;331;48.414;9.938;2023-04-01T00:25:44;8.70;99.90
698;DHT22;331;48.414;9.938;2023-04-01T00:28:13;8.70;99.90
698;DHT22;331;48.414;9.938;2023-04-01T00:30:40;8.70;99.90
698;DHT22;331;48.414;9.938;2023-04-01T00:33:07;8.60;99.90
698;DHT22;331;48.414;9.938;2023-04-01T00:35:34;8.60;99.90
698;DHT22;331;48.414;9.938;2023-04-01T00:38:03;8.60;99.90
698;DHT22;331;48.414;9.938;2023-04-01T00:40:31;8.60;99.90
698;DHT22;331;48.414;9.938;2023-04-01T00:42:59;8.60;99.90
698;DHT22;331;48.414;9.938;2023-04-01T00:45:28;8.60;99.90
698;DHT22;331;48.414;9.938;2023-04-01T00:47:56;8.60;99.90
698;DHT22;331;48.414;9.938;2023-04-01T00:50:24;8.60;99.90
698;DHT22;331;48.414;9.938;2023-04-01T00:52:53;8.60;99.90
698;DHT22;331;48.414;9.938;2023-04-01T00:55:21;8.60;99.90
698;DHT22;331;48.414;9.938;2023-04-01T00:57:49;8.60;99.90
698;DHT22;331;48.414;9.938;2023-04-01T01:00:17;8.60;99.90
698;DHT22;331;48.414;9.938;2023-04-01T01:02:45;8.60;99.90
698;DHT22;331;48.414;9.938;2023-04-01T01:05:12;8.60;99.90
698;DHT22;331;48.414;9.938;2023-04-01T01:07:41;8.60;99.90
698;DHT22;331;48.414;9.938;2023-04-01T01:10:12;8.50;99.90
698;DHT22;331;48.414;9.938;2023-04-01T01:12:45;8.50;99.90
698;DHT22;331;48.414;9.938;2023-04-01T01:15:15;8.50;99.90
698;DHT22;331;48.414;9.938;2023-04-01T01:17:47;8.50;99.90
698;DHT22;331;48.414;9.938;2023-04-01T01:23:16;8.50;99.90
698;DHT22;331;48.414;9.938;2023-04-01T01:25:50;8.50;99.90
698;DHT22;331;48.414;9.938;2023-04-01T01:28:26;8.40;99.90
698;DHT22;331;48.414;9.938;2023-04-01T01:30:58;8.50;99.90
698;DHT22;331;48.414;9.938;2023-04-01T01:33:35;8.50;99.90
698;DHT22;331;48.414;9.938;2023-04-01T01:36:09;8.40;99.90
698;DHT22;331;48.414;9.938;2023-04-01T01:38:38;8.40;99.90
698;DHT22;331;48.414;9.938;2023-04-01T01:41:06;8.40;99.90
698;DHT22;331;48.414;9.938;2023-04-01T01:43:35;8.40;99.90
698;DHT22;331;48.414;9.938;2023-04-01T01:46:04;8.40;99.90
698;DHT22;331;48.414;9.938;2023-04-01T01:48:33;8.40;99.90
698;DHT22;331;48.414;9.938;2023-04-01T01:51:00;8.30;99.90
698;DHT22;331;48.414;9.938;2023-04-01T01:53:29;8.40;99.90
698;DHT22;331;48.414;9.938;2023-04-01T01:55:56;8.30;99.90
698;DHT22;331;48.414;9.938;2023-04-01T01:58:24;8.40;99.90
698;DHT22;331;48.414;9.938;2023-04-01T02:00:52;8.30;99.90
698;DHT22;331;48.414;9.938;2023-04-01T02:03:21;8.30;99.90
698;DHT22;331;48.414;9.938;2023-04-01T02:05:48;8.30;99.90
698;DHT22;331;48.414;9.938;2023-04-01T02:08:18;8.30;99.90
698;DHT22;331;48.414;9.938;2023-04-01T02:10:48;8.30;99.90
698;DHT22;331;48.414;9.938;2023-04-01T02:13:21;8.30;99.90
698;DHT22;331;48.414;9.938;2023-04-01T02:15:49;8.30;99.90
698;DHT22;331;48.414;9.938;2023-04-01T02:18:18;8.30;99.90
698;DHT22;331;48.414;9.938;2023-04-01T02:20:46;8.30;99.90
698;DHT22;331;48.414;9.938;2023-04-01T02:23:12;8.30;99.90
698;DHT22;331;48.414;9.938;2023-04-01T02:25:40;8.30;99.90
698;DHT22;331;48.414;9.938;2023-04-01T02:28:09;8.30;99.90
698;DHT22;331;48.414;9.938;2023-04-01T02:30:38;8.30;99.90
698;DHT22;331;48.414;9.938;2023-04-01T02:33:06;8.20;99.90
698;DHT22;331;48.414;9.938;2023-04-01T02:35:33;8.20;99.90
698;DHT22;331;48.414;9.938;2023-04-01T02:38:02;8.20;99.90
698;DHT22;331;48.414;9.938;2023-04-01T02:40:29;8.20;99.90
698;DHT22;331;48.414;9.938;2023-04-01T02:42:56;8.30;99.90
698;DHT22;331;48.414;9.938;2023-04-01T02:45:24;8.20;99.90
698;DHT22;331;48.414;9.938;2023-04-01T02:47:51;8.20;99.90
698;DHT22;331;48.414;9.938;2023-04-01T02:50:18;8.20;99.90
698;DHT22;331;48.414;9.938;2023-04-01T02:52:44;8.20;99.90
698;DHT22;331;48.414;9.938;2023-04-01T02:55:12;8.20;99.90
698;DHT22;331;48.414;9.938;2023-04-01T02:57:39;8.20;99.90
698;DHT22;331;48.414;9.938;2023-04-01T03:00:06;8.20;99.90
698;DHT22;331;48.414;9.938;2023-04-01T03:02:38;8.20;99.90
698;DHT22;331;48.414;9.938;2023-04-01T03:05:06;8.10;99.90
698;DHT22;331;48.414;9.938;2023-04-01T03:07:32;8.10;99.90
698;DHT22;331;48.414;9.938;2023-04-01T03:09:59;8.10;99.90
698;DHT22;331;48.414;9.938;2023-04-01T03:12:26;8.10;99.90
698;DHT22;331;48.414;9.938;2023-04-01T03:14:53;8.10;99.90
698;DHT22;331;48.414;9.938;2023-04-01T03:17:20;8.10;99.90
698;DHT22;331;48.414;9.938;2023-04-01T03:19:48;8.10;99.90
698;DHT22;331;48.414;9.938;2023-04-01T03:22:15;8.10;99.90
698;DHT22;331;48.414;9.938;2023-04-01T03:24:44;8.10;99.90
698;DHT22;331;48.414;9.938;2023-04-01T03:27:11;8.10;99.90
698;DHT22;331;48.414;9.938;2023-04-01T03:29:38;8.00;99.90
698;DHT22;331;48.414;9.938;2023-04-01T03:32:05;8.00;99.90
698;DHT22;331;48.414;9.938;2023-04-01T03:34:32;8.00;99.90
698;DHT22;331;48.414;9.938;2023-04-01T03:37:03;8.10;99.90
698;DHT22;331;48.414;9.938;2023-04-01T03:39:31;8.00;99.90
698;DHT22;331;48.414;9.938;2023-04-01T03:41:58;8.00;99.90
698;DHT22;331;48.414;9.938;2023-04-01T03:44:25;8.00;99.90
698;DHT22;331;48.414;9.938;2023-04-01T03:46:54;8.00;99.90
698;DHT22;331;48.414;9.938;2023-04-01T03:49:21;8.00;99.90
698;DHT22;331;48.414;9.938;2023-04-01T03:51:48;8.00;99.90
698;DHT22;331;48.414;9.938;2023-04-01T03:54:17;8.00;99.90
698;DHT22;331;48.414;9.938;2023-04-01T03:56:45;7.90;99.90
698;DHT22;331;48.414;9.938;2023-04-01T03:59:12;8.00;99.90
698;DHT22;331;48.414;9.938;2023-04-01T04:01:39;8.00;99.90
698;DHT22;331;48.414;9.938;2023-04-01T04:04:06;8.00;99.90
698;DHT22;331;48.414;9.938;2023-04-01T04:06:33;7.90;99.90
698;DHT22;331;48.414;9.938;2023-04-01T04:09:01;7.90;99.90
698;DHT22;331;48.414;9.938;2023-04-01T04:11:31;7.90;99.90
698;DHT22;331;48.414;9.938;2023-04-01T04:13:58;8.00;99.90
698;DHT22;331;48.414;9.938;2023-04-01T04:16:25;7.90;99.90
698;DHT22;331;48.414;9.938;2023-04-01T04:18:57;7.90;99.90
698;DHT22;331;48.414;9.938;2023-04-01T04:21:23;8.00;99.90
698;DHT22;331;48.414;9.938;2023-04-01T04:23:50;7.90;99.90
698;DHT22;331;48.414;9.938;2023-04-01T04:26:18;7.90;99.90
698;DHT22;331;48.414;9.938;2023-04-01T04:28:54;7.90;99.90
698;DHT22;331;48.414;9.938;2023-04-01T04:31:22;7.90;99.90
698;DHT22;331;48.414;9.938;2023-04-01T04:33:50;7.80;99.90
698;DHT22;331;48.414;9.938;2023-04-01T04:36:17;7.80;99.90
698;DHT22;331;48.414;9.938;2023-04-01T04:38:47;7.80;99.90
698;DHT22;331;48.414;9.938;2023-04-01T04:41:14;7.80;99.90
698;DHT22;331;48.414;9.938;2023-04-01T04:43:48;7.80;99.90
698;DHT22;331;48.414;9.938;2023-04-01T04:46:17;7.80;99.90
698;DHT22;331;48.414;9.938;2023-04-01T04:48:44;7.80;99.90
698;DHT22;331;48.414;9.938;2023-04-01T04:51:15;7.80;99.90
698;DHT22;331;48.414;9.938;2023-04-01T04:53:42;7.70;99.90
698;DHT22;331;48.414;9.938;2023-04-01T04:56:09;7.70;99.90
698;DHT22;331;48.414;9.938;2023-04-01T04:58:46;7.70;99.90
698;DHT22;331;48.414;9.938;2023-04-01T05:01:18;7.70;99.90
698;DHT22;331;48.414;9.938;2023-04-01T05:03:45;7.70;99.90
698;DHT22;331;48.414;9.938;2023-04-01T05:06:13;7.70;99.90
698;DHT22;331;48.414;9.938;2023-04-01T05:08:41;7.70;99.90
698;DHT22;331;48.414;9.938;2023-04-01T05:11:09;7.70;99.90
698;DHT22;331;48.414;9.938;2023-04-01T05:13:37;7.70;99.90
698;DHT22;331;48.414;9.938;2023-04-01T05:16:07;7.70;99.90
698;DHT22;331;48.414;9.938;2023-04-01T05:18:35;7.70;99.90
698;DHT22;331;48.414;9.938;2023-04-01T05:21:02;7.70;99.90
698;DHT22;331;48.414;9.938;2023-04-01T05:23:30;7.60;99.90
698;DHT22;331;48.414;9.938;2023-04-01T05:25:57;7.60;99.90
698;DHT22;331;48.414;9.938;2023-04-01T05:28:24;7.60;99.90
698;DHT22;331;48.414;9.938;2023-04-01T05:30:51;7.60;99.90
698;DHT22;331;48.414;9.938;2023-04-01T05:33:23;7.60;99.90
698;DHT22;331;48.414;9.938;2023-04-01T05:35:52;7.60;99.90
698;DHT22;331;48.414;9.938;2023-04-01T05:38:19;7.60;99.90
698;DHT22;331;48.414;9.938;2023-04-01T05:40:46;7.60;99.90
698;DHT22;331;48.414;9.938;2023-04-01T05:43:14;7.60;99.90
698;DHT22;331;48.414;9.938;2023-04-01T05:45:42;7.60;99.90
698;DHT22;331;48.414;9.938;2023-04-01T05:48:28;7.60;99.90
698;DHT22;331;48.414;9.938;2023-04-01T05:50:56;7.60;99.90
698;DHT22;331;48.414;9.938;2023-04-01T05:53:23;7.60;99.90
698;DHT22;331;48.414;9.938;2023-04-01T05:55:50;7.50;99.90
698;DHT22;331;48.414;9.938;2023-04-01T05:58:17;7.50;99.90
698;DHT22;331;48.414;9.938;2023-04-01T06:00:46;7.50;99.90
698;DHT22;331;48.414;9.938;2023-04-01T06:03:15;7.50;99.90
698;DHT22;331;48.414;9.938;2023-04-01T06:05:43;7.50;99.90
698;DHT22;331;48.414;9.938;2023-04-01T06:08:12;7.60;99.90
698;DHT22;331;48.414;9.938;2023-04-01T06:10:43;7.50;99.90
698;DHT22;331;48.414;9.938;2023-04-01T06:13:12;7.50;99.90
698;DHT22;331;48.414;9.938;2023-04-01T06:15:50;7.50;99.90
698;DHT22;331;48.414;9.938;2023-04-01T06:18:39;7.50;99.90
698;DHT22;331;48.414;9.938;2023-04-01T06:21:12;7.50;99.90
698;DHT22;331;48.414;9.938;2023-04-01T06:23:58;7.50;99.90
698;DHT22;331;48.414;9.938;2023-04-01T06:26:30;7.50;99.90
698;DHT22;331;48.414;9.938;2023-04-01T06:29:18;7.50;99.90
698;DHT22;331;48.414;9.938;2023-04-01T06:34:59;7.50;99.90
698;DHT22;331;48.414;9.938;2023-04-01T06:37:40;7.50;99.90
698;DHT22;331;48.414;9.938;2023-04-01T06:40:25;7.50;99.90
698;DHT22;331;48.414;9.938;2023-04-01T06:43:05;7.50;99.90
698;DHT22;331;48.414;9.938;2023-04-01T06:45:57;7.50;99.90
698;DHT22;331;48.414;9.938;2023-04-01T06:48:56;7.60;99.90
698;DHT22;331;48.414;9.938;2023-04-01T06:51:44;7.50;99.90
698;DHT22;331;48.414;9.938;2023-04-01T06:54:47;7.50;99.90
698;DHT22;331;48.414;9.938;2023-04-01T06:57:38;7.50;99.90
698;DHT22;331;48.414;9.938;2023-04-01T07:00:10;7.50;99.90
698;DHT22;331;48.414;9.938;2023-04-01T07:02:41;7.50;99.90
698;DHT22;331;48.414;9.938;2023-04-01T07:05:10;7.50;99.90
698;DHT22;331;48.414;9.938;2023-04-01T07:07:38;7.50;99.90
698;DHT22;331;48.414;9.938;2023-04-01T07:10:11;7.50;99.90
698;DHT22;331;48.414;9.938;2023-04-01T07:12:59;7.50;99.90
698;DHT22;331;48.414;9.938;2023-04-01T07:15:49;7.50;99.90
698;DHT22;331;48.414;9.938;2023-04-01T07:18:18;7.50;99.90
698;DHT22;331;48.414;9.938;2023-04-01T07:20:46;7.50;99.90
698;DHT22;331;48.414;9.938;2023-04-01T07:23:15;7.50;99.90
698;DHT22;331;48.414;9.938;2023-04-01T07:25:52;7.50;99.90
698;DHT22;331;48.414;9.938;2023-04-01T07:28:42;7.50;99.90
698;DHT22;331;48.414;9.938;2023-04-01T07:31:23;7.60;99.90
698;DHT22;331;48.414;9.938;2023-04-01T07:33:58;7.60;99.90
698;DHT22;331;48.414;9.938;2023-04-01T07:36:30;7.60;99.90
698;DHT22;331;48.414;9.938;2023-04-01T07:39:00;7.60;99.90
698;DHT22;331;48.414;9.938;2023-04-01T07:41:57;7.60;99.90
698;DHT22;331;48.414;9.938;2023-04-01T07:44:31;7.60;99.90
698;DHT22;331;48.414;9.938;2023-04-01T07:47:04;7.60;99.90
698;DHT22;331;48.414;9.938;2023-04-01T07:49:33;7.60;99.90
698;DHT22;331;48.414;9.938;2023-04-01T07:52:02;7.60;99.90
698;DHT22;331;48.414;9.938;2023-04-01T07:54:37;7.60;99.90
698;DHT22;331;48.414;9.938;2023-04-01T07:57:08;7.60;99.90
698;DHT22;331;48.414;9.938;2023-04-01T07:59:48;7.70;99.90
698;DHT22;331;48.414;9.938;2023-04-01T08:02:27;7.70;99.90
698;DHT22;331;48.414;9.938;2023-04-01T08:04:57;7.70;99.90
698;DHT22;331;48.414;9.938;2023-04-01T08:07:28;7.70;99.90
698;DHT22;331;48.414;9.938;2023-04-01T08:10:23;7.70;99.90
698;DHT22;331;48.414;9.938;2023-04-01T08:13:26;7.70;99.90
698;DHT22;331;48.414;9.938;2023-04-01T08:16:28;7.70;99.90
698;DHT22;331;48.414;9.938;2023-04-01T08:19:01;7.70;99.90
698;DHT22;331;48.414;9.938;2023-04-01T08:21:32;7.70;99.90
698;DHT22;331;48.414;9.938;2023-04-01T08:24:05;7.70;99.90
698;DHT22;331;48.414;9.938;2023-04-01T08:26:35;7.80;99.90
698;DHT22;331;48.414;9.938;2023-04-01T08:29:06;7.80;99.90
698;DHT22;331;48.414;9.938;2023-04-01T08:31:38;7.80;99.90
698;DHT22;331;48.414;9.938;2023-04-01T08:34:08;7.80;99.90
698;DHT22;331;48.414;9.938;2023-04-01T08:36:37;7.80;99.90
698;DHT22;331;48.414;9.938;2023-04-01T08:39:15;7.80;99.90
698;DHT22;331;48.414;9.938;2023-04-01T08:44:59;7.80;99.90
698;DHT22;331;48.414;9.938;2023-04-01T08:47:40;7.80;99.90
698;DHT22;331;48.414;9.938;2023-04-01T08:50:19;7.80;99.90
698;DHT22;331;48.414;9.938;2023-04-01T08:53:16;7.80;99.90
698;DHT22;331;48.414;9.938;2023-04-01T08:55:51;7.90;99.90
698;DHT22;331;48.414;9.938;2023-04-01T08:58:26;7.80;99.90
698;DHT22;331;48.414;9.938;2023-04-01T09:01:19;7.90;99.90
698;DHT22;331;48.414;9.938;2023-04-01T09:06:36;7.90;99.90
698;DHT22;331;48.414;9.938;2023-04-01T09:09:09;7.90;99.90
698;DHT22;331;48.414;9.938;2023-04-01T09:11:49;7.90;99.90
698;DHT22;331;48.414;9.938;2023-04-01T09:14:36;7.90;99.90
698;DHT22;331;48.414;9.938;2023-04-01T09:17:30;7.90;99.90
698;DHT22;331;48.414;9.938;2023-04-01T09:20:17;7.90;99.90
698;DHT22;331;48.414;9.938;2023-04-01T09:22:58;7.90;99.90
698;DHT22;331;48.414;9.938;2023-04-01T09:25:36;7.90;99.90
698;DHT22;331;48.414;9.938;2023-04-01T09:28:08;7.90;99.90
698;DHT22;331;48.414;9.938;2023-04-01T09:30:47;7.90;99.90
698;DHT22;331;48.414;9.938;2023-04-01T09:33:40;7.90;99.90
698;DHT22;331;48.414;9.938;2023-04-01T09:36:11;7.90;99.90
698;DHT22;331;48.414;9.938;2023-04-01T09:38:47;7.90;99.90
698;DHT22;331;48.414;9.938;2023-04-01T09:41:21;7.90;99.90
698;DHT22;331;48.414;9.938;2023-04-01T09:44:03;7.90;99.90
698;DHT22;331;48.414;9.938;2023-04-01T09:46:47;7.90;99.90
698;DHT22;331;48.414;9.938;2023-04-01T09:49:24;7.90;99.90
698;DHT22;331;48.414;9.938;2023-04-01T09:52:00;7.90;99.90
698;DHT22;331;48.414;9.938;2023-04-01T09:54:39;7.90;99.90
698;DHT22;331;48.414;9.938;2023-04-01T10:00:26;7.90;99.90
698;DHT22;331;48.414;9.938;2023-04-01T10:03:11;7.90;99.90
698;DHT22;331;48.414;9.938;2023-04-01T10:14:18;7.90;99.90
698;DHT22;331;48.414;9.938;2023-04-01T10:22:49;7.90;99.90
698;DHT22;331;48.414;9.938;2023-04-01T10:25:23;7.90;99.90
698;DHT22;331;48.414;9.938;2023-04-01T10:28:16;7.90;99.90
698;DHT22;331;48.414;9.938;2023-04-01T10:31:37;7.90;99.90
698;DHT22;331;48.414;9.938;2023-04-01T10:36:56;7.90;99.90
698;DHT22;331;48.414;9.938;2023-04-01T10:51:19;8.00;99.90
698;DHT22;331;48.414;9.938;2023-04-01T10:57:07;8.00;99.90
698;DHT22;331;48.414;9.938;2023-04-01T11:00:30;8.00;99.90
698;DHT22;331;48.414;9.938;2023-04-01T11:06:54;8.00;99.90
698;DHT22;331;48.414;9.938;2023-04-01T11:09:35;8.00;99.90
698;DHT22;331;48.414;9.938;2023-04-01T11:12:15;8.00;99.90
698;DHT22;331;48.414;9.938;2023-04-01T11:14:53;8.00;99.90
698;DHT22;331;48.414;9.938;2023-04-01T11:20:18;8.00;99.90
698;DHT22;331;48.414;9.938;2023-04-01T11:25:47;8.00;99.90
698;DHT22;331;48.414;9.938;2023-04-01T11:28:42;8.10;99.90
698;DHT22;331;48.414;9.938;2023-04-01T11:31:20;8.10;99.90
698;DHT22;331;48.414;9.938;2023-04-01T11:33:53;8.10;99.90
698;DHT22;331;48.414;9.938;2023-04-01T11:36:25;8.10;99.90
698;DHT22;331;48.414;9.938;2023-04-01T11:39:00;8.00;99.90
698;DHT22;331;48.414;9.938;2023-04-01T11:41:58;8.00;99.90
698;DHT22;331;48.414;9.938;2023-04-01T11:44:31;8.10;99.90
698;DHT22;331;48.414;9.938;2023-04-01T11:47:22;8.10;99.90
698;DHT22;331;48.414;9.938;2023-04-01T11:49:58;8.10;99.90
698;DHT22;331;48.414;9.938;2023-04-01T11:52:51;8.10;99.90
698;DHT22;331;48.414;9.938;2023-04-01T11:55:23;8.10;99.90
698;DHT22;331;48.414;9.938;2023-04-01T12:00:54;8.10;99.90
698;DHT22;331;48.414;9.938;2023-04-01T12:03:36;8.10;99.90
698;DHT22;331;48.414;9.938;2023-04-01T12:06:05;8.10;99.90
698;DHT22;331;48.414;9.938;2023-04-01T12:08:37;8.10;99.90
698;DHT22;331;48.414;9.938;2023-04-01T12:11:08;8.10;99.90
698;DHT22;331;48.414;9.938;2023-04-01T12:13:42;8.10;99.90
698;DHT22;331;48.414;9.938;2023-04-01T12:16:19;8.10;99.90
698;DHT22;331;48.414;9.938;2023-04-01T12:18:48;8.20;99.90
698;DHT22;331;48.414;9.938;2023-04-01T12:21:21;8.10;99.90
698;DHT22;331;48.414;9.938;2023-04-01T12:23:59;8.20;99.90
698;DHT22;331;48.414;9.938;2023-04-01T12:26:35;8.20;99.90
698;DHT22;331;48.414;9.938;2023-04-01T12:29:13;8.20;99.90
698;DHT22;331;48.414;9.938;2023-04-01T12:31:47;8.20;99.90
698;DHT22;331;48.414;9.938;2023-04-01T12:34:24;8.20;99.90
698;DHT22;331;48.414;9.938;2023-04-01T12:36:58;8.30;99.90
698;DHT22;331;48.414;9.938;2023-04-01T12:39:32;8.30;99.90
698;DHT22;331;48.414;9.938;2023-04-01T12:42:02;8.30;99.90
698;DHT22;331;48.414;9.938;2023-04-01T12:44:37;8.30;99.90
698;DHT22;331;48.414;9.938;2023-04-01T12:47:16;8.30;99.90
698;DHT22;331;48.414;9.938;2023-04-01T12:49:54;8.40;99.90
698;DHT22;331;48.414;9.938;2023-04-01T12:52:25;8.40;99.90
698;DHT22;331;48.414;9.938;2023-04-01T12:55:12;8.40;99.90
698;DHT22;331;48.414;9.938;2023-04-01T12:57:53;8.40;99.90
698;DHT22;331;48.414;9.938;2023-04-01T13:00:30;8.40;99.90
698;DHT22;331;48.414;9.938;2023-04-01T13:03:06;8.40;99.90
698;DHT22;331;48.414;9.938;2023-04-01T13:08:29;8.40;99.90
698;DHT22;331;48.414;9.938;2023-04-01T13:11:05;8.50;99.90
698;DHT22;331;48.414;9.938;2023-04-01T13:13:39;8.50;99.90
698;DHT22;331;48.414;9.938;2023-04-01T13:16:10;8.50;99.90
698;DHT22;331;48.414;9.938;2023-04-01T13:18:44;8.50;99.90
698;DHT22;331;48.414;9.938;2023-04-01T13:21:19;8.50;99.90
698;DHT22;331;48.414;9.938;2023-04-01T13:23:51;8.50;99.90
698;DHT22;331;48.414;9.938;2023-04-01T13:26:22;8.50;99.90
698;DHT22;331;48.414;9.938;2023-04-01T13:28:56;8.50;99.90
698;DHT22;331;48.414;9.938;2023-04-01T13:31:27;8.60;99.90
698;DHT22;331;48.414;9.938;2023-04-01T13:34:00;8.60;99.90
698;DHT22;331;48.414;9.938;2023-04-01T13:36:33;8.60;99.90
698;DHT22;331;48.414;9.938;2023-04-01T13:39:13;8.60;99.90
698;DHT22;331;48.414;9.938;2023-04-01T13:41:45;8.60;99.90
698;DHT22;331;48.414;9.938;2023-04-01T13:44:16;8.70;99.90
698;DHT22;331;48.414;9.938;2023-04-01T13:46:52;8.70;99.90
698;DHT22;331;48.414;9.938;2023-04-01T13:52:09;8.70;99.90
698;DHT22;331;48.414;9.938;2023-04-01T13:57:23;8.70;99.90
698;DHT22;331;48.414;9.938;2023-04-01T14:05:34;8.80;99.90
698;DHT22;331;48.414;9.938;2023-04-01T14:08:07;8.80;99.90
698;DHT22;331;48.414;9.938;2023-04-01T14:10:36;8.80;99.90
698;DHT22;331;48.414;9.938;2023-04-01T14:13:08;8.80;99.90
698;DHT22;331;48.414;9.938;2023-04-01T14:15:42;8.90;99.90
698;DHT22;331;48.414;9.938;2023-04-01T14:18:22;8.90;99.90
698;DHT22;331;48.414;9.938;2023-04-01T14:20:56;8.90;99.90
698;DHT22;331;48.414;9.938;2023-04-01T14:23:42;8.90;99.90
698;DHT22;331;48.414;9.938;2023-04-01T14:26:16;8.90;99.90
698;DHT22;331;48.414;9.938;2023-04-01T14:28:48;8.90;99.90
698;DHT22;331;48.414;9.938;2023-04-01T14:31:38;8.90;99.90
698;DHT22;331;48.414;9.938;2023-04-01T14:34:11;9.00;99.90
698;DHT22;331;48.414;9.938;2023-04-01T14:36:46;9.00;99.90
698;DHT22;331;48.414;9.938;2023-04-01T14:39:22;8.90;99.90
698;DHT22;331;48.414;9.938;2023-04-01T14:41:56;8.90;99.90
698;DHT22;331;48.414;9.938;2023-04-01T14:47:14;8.90;99.90
698;DHT22;331;48.414;9.938;2023-04-01T14:49:42;9.00;99.90
698;DHT22;331;48.414;9.938;2023-04-01T14:52:13;9.00;99.90
698;DHT22;331;48.414;9.938;2023-04-01T14:54:44;9.00;99.90
698;DHT22;331;48.414;9.938;2023-04-01T14:57:11;9.00;99.90
698;DHT22;331;48.414;9.938;2023-04-01T14:59:39;9.00;99.90
698;DHT22;331;48.414;9.938;2023-04-01T15:02:09;9.00;99.90
698;DHT22;331;48.414;9.938;2023-04-01T15:04:50;9.00;99.90
698;DHT22;331;48.414;9.938;2023-04-01T15:10:08;9.00;99.90
698;DHT22;331;48.414;9.938;2023-04-01T15:12:47;9.00;99.90
698;DHT22;331;48.414;9.938;2023-04-01T15:15:21;9.10;99.90
698;DHT22;331;48.414;9.938;2023-04-01T15:17:55;9.10;99.90
698;DHT22;331;48.414;9.938;2023-04-01T15:20:31;9.00;99.90
698;DHT22;331;48.414;9.938;2023-04-01T15:23:02;9.00;99.90
698;DHT22;331;48.414;9.938;2023-04-01T15:25:39;9.00;99.90
698;DHT22;331;48.414;9.938;2023-04-01T15:28:10;9.10;99.90
698;DHT22;331;48.414;9.938;2023-04-01T15:30:45;9.10;99.90
698;DHT22;331;48.414;9.938;2023-04-01T15:33:22;9.10;99.90
698;DHT22;331;48.414;9.938;2023-04-01T15:35:53;9.00;99.90
698;DHT22;331;48.414;9.938;2023-04-01T15:38:31;9.10;99.90
698;DHT22;331;48.414;9.938;2023-04-01T15:41:03;9.10;99.90
698;DHT22;331;48.414;9.938;2023-04-01T15:43:36;9.10;99.90
698;DHT22;331;48.414;9.938;2023-04-01T15:48:58;9.10;99.90
698;DHT22;331;48.414;9.938;2023-04-01T15:51:36;9.10;99.90
698;DHT22;331;48.414;9.938;2023-04-01T15:54:12;9.10;99.90
698;DHT22;331;48.414;9.938;2023-04-01T15:56:50;9.10;99.90
698;DHT22;331;48.414;9.938;2023-04-01T15:59:26;9.10;99.90
698;DHT22;331;48.414;9.938;2023-04-01T16:02:02;9.10;99.90
698;DHT22;331;48.414;9.938;2023-04-01T16:04:39;9.10;99.90
698;DHT22;331;48.414;9.938;2023-04-01T16:07:15;9.10;99.90
698;DHT22;331;48.414;9.938;2023-04-01T16:09:54;9.10;99.90
698;DHT22;331;48.414;9.938;2023-04-01T16:12:29;9.10;99.90
698;DHT22;331;48.414;9.938;2023-04-01T16:15:02;9.10;99.90
698;DHT22;331;48.414;9.938;2023-04-01T16:17:48;9.10;99.90
698;DHT22;331;48.414;9.938;2023-04-01T16:20:22;9.10;99.90
698;DHT22;331;48.414;9.938;2023-04-01T16:22:53;9.10;99.90
698;DHT22;331;48.414;9.938;2023-04-01T16:25:26;9.10;99.90
698;DHT22;331;48.414;9.938;2023-04-01T16:28:02;9.10;99.90
698;DHT22;331;48.414;9.938;2023-04-01T16:30:35;9.10;99.90
698;DHT22;331;48.414;9.938;2023-04-01T16:33:03;9.10;99.90
698;DHT22;331;48.414;9.938;2023-04-01T16:35:35;9.10;99.90
698;DHT22;331;48.414;9.938;2023-04-01T16:38:05;9.10;99.90
698;DHT22;331;48.414;9.938;2023-04-01T16:40:41;9.10;99.90
698;DHT22;331;48.414;9.938;2023-04-01T16:43:19;9.10;99.90
698;DHT22;331;48.414;9.938;2023-04-01T16:45:51;9.10;99.90
698;DHT22;331;48.414;9.938;2023-04-01T16:48:20;9.10;99.90
698;DHT22;331;48.414;9.938;2023-04-01T16:50:52;9.10;99.90
698;DHT22;331;48.414;9.938;2023-04-01T16:53:21;9.10;99.90
698;DHT22;331;48.414;9.938;2023-04-01T16:55:52;9.10;99.90
698;DHT22;331;48.414;9.938;2023-04-01T16:58:27;9.10;99.90
698;DHT22;331;48.414;9.938;2023-04-01T17:01:00;9.00;99.90
698;DHT22;331;48.414;9.938;2023-04-01T17:03:29;9.10;99.90
698;DHT22;331;48.414;9.938;2023-04-01T17:06:03;9.10;99.90
698;DHT22;331;48.414;9.938;2023-04-01T17:08:35;9.10;99.90
698;DHT22;331;48.414;9.938;2023-04-01T17:11:06;9.10;99.90
698;DHT22;331;48.414;9.938;2023-04-01T17:13:41;9.10;99.90
698;DHT22;331;48.414;9.938;2023-04-01T17:16:25;9.00;99.90
698;DHT22;331;48.414;9.938;2023-04-01T17:18:58;9.00;99.90
698;DHT22;331;48.414;9.938;2023-04-01T17:21:30;9.00;99.90
698;DHT22;331;48.414;9.938;2023-04-01T17:24:00;9.00;99.90
698;DHT22;331;48.414;9.938;2023-04-01T17:26:32;9.00;99.90
698;DHT22;331;48.414;9.938;2023-04-01T17:29:09;9.00;99.90
698;DHT22;331;48.414;9.938;2023-04-01T17:31:45;9.00;99.90
698;DHT22;331;48.414;9.938;2023-04-01T17:34:18;9.00;99.90
698;DHT22;331;48.414;9.938;2023-04-01T17:36:53;9.00;99.90
698;DHT22;331;48.414;9.938;2023-04-01T17:39:26;9.00;99.90
698;DHT22;331;48.414;9.938;2023-04-01T17:41:59;9.00;99.90
698;DHT22;331;48.414;9.938;2023-04-01T17:44:34;9.00;99.90
698;DHT22;331;48.414;9.938;2023-04-01T17:49:48;9.00;99.90
698;DHT22;331;48.414;9.938;2023-04-01T17:52:19;9.00;99.90
698;DHT22;331;48.414;9.938;2023-04-01T17:54:51;9.00;99.90
698;DHT22;331;48.414;9.938;2023-04-01T17:57:24;9.00;99.90
698;DHT22;331;48.414;9.938;2023-04-01T17:59:57;8.90;99.90
698;DHT22;331;48.414;9.938;2023-04-01T18:02:28;9.00;99.90
698;DHT22;331;48.414;9.938;2023-04-01T18:05:03;8.90;99.90
698;DHT22;331;48.414;9.938;2023-04-01T18:07:35;8.90;99.90
698;DHT22;331;48.414;9.938;2023-04-01T18:10:17;8.90;99.90
698;DHT22;331;48.414;9.938;2023-04-01T18:12:56;8.90;99.90
698;DHT22;331;48.414;9.938;2023-04-01T18:15:29;8.90;99.90
698;DHT22;331;48.414;9.938;2023-04-01T18:18:05;8.90;99.90
698;DHT22;331;48.414;9.938;2023-04-01T18:20:43;8.90;99.90
698;DHT22;331;48.414;9.938;2023-04-01T18:23:18;8.90;99.90
698;DHT22;331;48.414;9.938;2023-04-01T18:25:47;8.90;99.90
698;DHT22;331;48.414;9.938;2023-04-01T18:28:17;8.90;99.90
698;DHT22;331;48.414;9.938;2023-04-01T18:30:51;8.90;99.90
698;DHT22;331;48.414;9.938;2023-04-01T18:33:22;8.90;99.90
698;DHT22;331;48.414;9.938;2023-04-01T18:35:50;8.80;99.90
698;DHT22;331;48.414;9.938;2023-04-01T18:38:23;8.80;99.90
698;DHT22;331;48.414;9.938;2023-04-01T18:40:53;8.80;99.90
698;DHT22;331;48.414;9.938;2023-04-01T18:43:22;8.80;99.90
698;DHT22;331;48.414;9.938;2023-04-01T18:45:57;8.80;99.90
698;DHT22;331;48.414;9.938;2023-04-01T18:51:11;8.80;99.90
698;DHT22;331;48.414;9.938;2023-04-01T18:53:39;8.80;99.90
698;DHT22;331;48.414;9.938;2023-04-01T18:56:08;8.80;99.90
698;DHT22;331;48.414;9.938;2023-04-01T18:58:42;8.80;99.90
698;DHT22;331;48.414;9.938;2023-04-01T19:01:16;8.80;99.90